sensor_id;sensor_type;location;lat;lon;timestamp;pressure;altitude;pressure_sealevel;temperature;humidity
74722;BME280;63470;49.826;6.740;2022-12-10T00:01:06;99268.02;;;2.37;69.28
74722;BME280;63470;49.826;6.740;2022-12-10T00:03:29;99273.31;;;2.37;69.27
74722;BME280;63470;49.826;6.740;2022-12-10T00:06:01;99271.03;;;2.35;69.35
74722;BME280;63470;49.826;6.740;2022-12-10T00:08:30;99268.59;;;2.37;69.46
74722;BME280;63470;49.826;6.740;2022-12-10T00:11:05;99266.25;;;2.38;69.45
74722;BME280;63470;49.826;6.740;2022-12-10T00:13:34;99267.38;;;2.39;69.35
74722;BME280;63470;49.826;6.740;2022-12-10T00:16:07;99270.38;;;2.38;69.27
74722;BME280;63470;49.826;6.740;2022-12-10T00:18:33;99265.83;;;2.37;69.25
74722;BME280;63470;49.826;6.740;2022-12-10T00:21:06;99266.72;;;2.37;69.26
74722;BME280;63470;49.826;6.740;2022-12-10T00:23:34;99266.31;;;2.37;69.19
74722;BME280;63470;49.826;6.740;2022-12-10T00:26:09;99270.16;;;2.36;69.14
74722;BME280;63470;49.826;6.740;2022-12-10T00:28:35;99271.12;;;2.36;69.13
74722;BME280;63470;49.826;6.740;2022-12-10T00:31:08;99272.09;;;2.35;69.15
74722;BME280;63470;49.826;6.740;2022-12-10T00:33:37;99271.94;;;2.34;69.19
74722;BME280;63470;49.826;6.740;2022-12-10T00:36:08;99276.96;;;2.33;69.26
74722;BME280;63470;49.826;6.740;2022-12-10T00:38:37;99272.10;;;2.30;69.30
74722;BME280;63470;49.826;6.740;2022-12-10T00:41:11;99270.45;;;2.29;69.34
74722;BME280;63470;49.826;6.740;2022-12-10T00:43:41;99265.31;;;2.28;69.32
74722;BME280;63470;49.826;6.740;2022-12-10T00:46:08;99263.30;;;2.28;69.34
74722;BME280;63470;49.826;6.740;2022-12-10T00:48:39;99266.05;;;2.27;69.35
74722;BME280;63470;49.826;6.740;2022-12-10T00:51:14;99264.59;;;2.26;69.40
74722;BME280;63470;49.826;6.740;2022-12-10T00:53:41;99265.23;;;2.25;69.40
74722;BME280;63470;49.826;6.740;2022-12-10T00:56:12;99266.38;;;2.25;69.40
74722;BME280;63470;49.826;6.740;2022-12-10T00:58:43;99268.51;;;2.28;69.42
74722;BME280;63470;49.826;6.740;2022-12-10T01:01:22;99272.67;;;2.32;69.48
74722;BME280;63470;49.826;6.740;2022-12-10T01:03:41;99275.27;;;2.31;69.38
74722;BME280;63470;49.826;6.740;2022-12-10T01:06:17;99280.23;;;2.30;69.37
74722;BME280;63470;49.826;6.740;2022-12-10T01:08:42;99284.47;;;2.30;69.29
74722;BME280;63470;49.826;6.740;2022-12-10T01:11:13;99290.39;;;2.29;69.24
74722;BME280;63470;49.826;6.740;2022-12-10T01:13:42;99288.69;;;2.27;69.26
74722;BME280;63470;49.826;6.740;2022-12-10T01:16:14;99293.72;;;2.25;69.28
74722;BME280;63470;49.826;6.740;2022-12-10T01:18:43;99300.39;;;2.25;69.28
74722;BME280;63470;49.826;6.740;2022-12-10T01:21:15;99305.30;;;2.24;69.24
74722;BME280;63470;49.826;6.740;2022-12-10T01:23:47;99309.19;;;2.24;69.23
74722;BME280;63470;49.826;6.740;2022-12-10T01:26:17;99313.02;;;2.22;69.18
74722;BME280;63470;49.826;6.740;2022-12-10T01:28:45;99310.89;;;2.20;69.19
74722;BME280;63470;49.826;6.740;2022-12-10T01:31:25;99312.09;;;2.19;69.19
74722;BME280;63470;49.826;6.740;2022-12-10T01:33:47;99309.02;;;2.16;69.20
74722;BME280;63470;49.826;6.740;2022-12-10T01:36:19;99308.91;;;2.14;69.20
74722;BME280;63470;49.826;6.740;2022-12-10T01:38:47;99317.84;;;2.12;69.23
74722;BME280;63470;49.826;6.740;2022-12-10T01:41:27;99318.77;;;2.10;69.26
74722;BME280;63470;49.826;6.740;2022-12-10T01:43:52;99321.75;;;2.07;69.29
74722;BME280;63470;49.826;6.740;2022-12-10T01:46:18;99314.67;;;2.05;69.26
74722;BME280;63470;49.826;6.740;2022-12-10T01:48:50;99315.72;;;2.03;69.25
74722;BME280;63470;49.826;6.740;2022-12-10T01:51:21;99318.07;;;2.03;69.21
74722;BME280;63470;49.826;6.740;2022-12-10T01:53:50;99321.83;;;2.02;69.20
74722;BME280;63470;49.826;6.740;2022-12-10T01:56:21;99324.66;;;1.99;69.24
74722;BME280;63470;49.826;6.740;2022-12-10T01:58:54;99323.93;;;1.98;69.28
74722;BME280;63470;49.826;6.740;2022-12-10T02:01:46;99320.89;;;1.97;69.26
74722;BME280;63470;49.826;6.740;2022-12-10T02:04:06;99324.14;;;1.95;69.23
74722;BME280;63470;49.826;6.740;2022-12-10T02:09:20;99329.36;;;1.94;69.14
74722;BME280;63470;49.826;6.740;2022-12-10T02:11:28;99332.84;;;1.91;69.18
74722;BME280;63470;49.826;6.740;2022-12-10T02:14:00;99336.50;;;1.90;69.24
74722;BME280;63470;49.826;6.740;2022-12-10T02:16:30;99334.38;;;1.89;69.21
74722;BME280;63470;49.826;6.740;2022-12-10T02:19:07;99333.55;;;1.88;69.21
74722;BME280;63470;49.826;6.740;2022-12-10T02:21:33;99331.69;;;1.87;69.19
74722;BME280;63470;49.826;6.740;2022-12-10T02:24:00;99332.23;;;1.86;69.24
74722;BME280;63470;49.826;6.740;2022-12-10T02:29:16;99332.41;;;1.84;69.28
74722;BME280;63470;49.826;6.740;2022-12-10T02:31:30;99333.27;;;1.82;69.27
74722;BME280;63470;49.826;6.740;2022-12-10T02:34:01;99336.69;;;1.82;69.27
74722;BME280;63470;49.826;6.740;2022-12-10T02:36:32;99337.83;;;1.81;69.30
74722;BME280;63470;49.826;6.740;2022-12-10T02:39:02;99333.67;;;1.80;69.27
74722;BME280;63470;49.826;6.740;2022-12-10T02:41:35;99337.58;;;1.80;69.21
74722;BME280;63470;49.826;6.740;2022-12-10T02:44:04;99337.66;;;1.79;69.17
74722;BME280;63470;49.826;6.740;2022-12-10T02:46:32;99330.00;;;1.76;69.16
74722;BME280;63470;49.826;6.740;2022-12-10T02:49:04;99331.80;;;1.75;69.19
74722;BME280;63470;49.826;6.740;2022-12-10T02:51:32;99335.27;;;1.73;69.17
74722;BME280;63470;49.826;6.740;2022-12-10T02:54:05;99332.57;;;1.70;69.22
74722;BME280;63470;49.826;6.740;2022-12-10T02:56:54;99331.11;;;1.67;69.30
74722;BME280;63470;49.826;6.740;2022-12-10T02:59:22;99332.79;;;1.64;69.34
74722;BME280;63470;49.826;6.740;2022-12-10T03:01:44;99329.94;;;1.63;69.40
74722;BME280;63470;49.826;6.740;2022-12-10T03:06:38;99331.78;;;1.60;69.47
74722;BME280;63470;49.826;6.740;2022-12-10T03:09:09;99330.16;;;1.58;69.45
74722;BME280;63470;49.826;6.740;2022-12-10T03:11:39;99329.66;;;1.56;69.46
74722;BME280;63470;49.826;6.740;2022-12-10T03:14:16;99330.70;;;1.56;69.51
74722;BME280;63470;49.826;6.740;2022-12-10T03:16:49;99329.17;;;1.55;69.50
74722;BME280;63470;49.826;6.740;2022-12-10T03:19:13;99327.05;;;1.54;69.49
74722;BME280;63470;49.826;6.740;2022-12-10T03:21:41;99326.95;;;1.56;69.46
74722;BME280;63470;49.826;6.740;2022-12-10T03:24:10;99328.58;;;1.56;69.41
74722;BME280;63470;49.826;6.740;2022-12-10T03:26:41;99328.92;;;1.56;69.33
74722;BME280;63470;49.826;6.740;2022-12-10T03:29:16;99328.76;;;1.56;69.30
74722;BME280;63470;49.826;6.740;2022-12-10T03:31:41;99329.24;;;1.55;69.29
74722;BME280;63470;49.826;6.740;2022-12-10T03:34:13;99329.23;;;1.53;69.29
74722;BME280;63470;49.826;6.740;2022-12-10T03:36:43;99331.66;;;1.51;69.30
74722;BME280;63470;49.826;6.740;2022-12-10T03:39:14;99327.67;;;1.49;69.29
74722;BME280;63470;49.826;6.740;2022-12-10T03:41:44;99328.15;;;1.45;69.23
74722;BME280;63470;49.826;6.740;2022-12-10T03:44:32;99329.16;;;1.42;69.19
74722;BME280;63470;49.826;6.740;2022-12-10T03:46:45;99323.67;;;1.34;69.22
74722;BME280;63470;49.826;6.740;2022-12-10T03:49:16;99329.39;;;1.26;69.29
74722;BME280;63470;49.826;6.740;2022-12-10T03:51:46;99331.51;;;1.17;69.37
74722;BME280;63470;49.826;6.740;2022-12-10T03:54:17;99337.27;;;1.12;69.42
74722;BME280;63470;49.826;6.740;2022-12-10T03:56:48;99335.20;;;1.08;69.41
74722;BME280;63470;49.826;6.740;2022-12-10T03:59:19;99339.04;;;1.03;69.44
74722;BME280;63470;49.826;6.740;2022-12-10T04:01:49;99335.53;;;0.98;69.47
74722;BME280;63470;49.826;6.740;2022-12-10T04:04:20;99340.38;;;0.97;69.46
74722;BME280;63470;49.826;6.740;2022-12-10T04:06:50;99339.74;;;0.98;69.40
74722;BME280;63470;49.826;6.740;2022-12-10T04:09:21;99339.17;;;0.97;69.38
74722;BME280;63470;49.826;6.740;2022-12-10T04:11:55;99336.79;;;0.95;69.40
74722;BME280;63470;49.826;6.740;2022-12-10T04:14:59;99340.06;;;0.95;69.39
74722;BME280;63470;49.826;6.740;2022-12-10T04:16:52;99341.44;;;0.95;69.37
74722;BME280;63470;49.826;6.740;2022-12-10T04:19:23;99349.62;;;0.94;69.42
74722;BME280;63470;49.826;6.740;2022-12-10T04:22:31;99346.28;;;0.94;69.47
74722;BME280;63470;49.826;6.740;2022-12-10T04:25:01;99346.45;;;0.95;69.46
74722;BME280;63470;49.826;6.740;2022-12-10T04:26:56;99348.02;;;0.96;69.41
74722;BME280;63470;49.826;6.740;2022-12-10T04:29:29;99343.56;;;0.97;69.36
74722;BME280;63470;49.826;6.740;2022-12-10T04:31:57;99348.17;;;0.94;69.30
74722;BME280;63470;49.826;6.740;2022-12-10T04:34:26;99347.50;;;0.91;69.29
74722;BME280;63470;49.826;6.740;2022-12-10T04:36:58;99350.73;;;0.89;69.27
74722;BME280;63470;49.826;6.740;2022-12-10T04:39:28;99352.64;;;0.86;69.28
74722;BME280;63470;49.826;6.740;2022-12-10T04:41:59;99354.42;;;0.86;69.27
74722;BME280;63470;49.826;6.740;2022-12-10T04:44:28;99354.36;;;0.88;69.26
74722;BME280;63470;49.826;6.740;2022-12-10T04:46:59;99361.86;;;0.90;69.27
74722;BME280;63470;49.826;6.740;2022-12-10T04:49:29;99365.64;;;0.95;69.25
74722;BME280;63470;49.826;6.740;2022-12-10T04:52:00;99371.28;;;1.01;69.24
74722;BME280;63470;49.826;6.740;2022-12-10T04:54:30;99370.30;;;1.10;69.18
74722;BME280;63470;49.826;6.740;2022-12-10T04:57:01;99369.55;;;1.18;69.12
74722;BME280;63470;49.826;6.740;2022-12-10T04:59:31;99373.59;;;1.26;69.06
74722;BME280;63470;49.826;6.740;2022-12-10T05:02:03;99379.36;;;1.35;69.00
74722;BME280;63470;49.826;6.740;2022-12-10T05:04:33;99376.41;;;1.43;68.92
74722;BME280;63470;49.826;6.740;2022-12-10T05:07:03;99379.20;;;1.49;68.85
74722;BME280;63470;49.826;6.740;2022-12-10T05:09:33;99375.58;;;1.53;68.87
74722;BME280;63470;49.826;6.740;2022-12-10T05:12:04;99383.81;;;1.55;68.92
74722;BME280;63470;49.826;6.740;2022-12-10T05:14:35;99380.24;;;1.57;68.94
74722;BME280;63470;49.826;6.740;2022-12-10T05:17:05;99384.70;;;1.58;69.00
74722;BME280;63470;49.826;6.740;2022-12-10T05:19:36;99388.09;;;1.63;68.93
74722;BME280;63470;49.826;6.740;2022-12-10T05:22:35;99390.84;;;1.66;68.88
74722;BME280;63470;49.826;6.740;2022-12-10T05:24:37;99389.31;;;1.67;68.87
74722;BME280;63470;49.826;6.740;2022-12-10T05:27:07;99388.58;;;1.68;68.94
74722;BME280;63470;49.826;6.740;2022-12-10T05:29:37;99389.33;;;1.70;68.93
74722;BME280;63470;49.826;6.740;2022-12-10T05:32:08;99389.89;;;1.70;68.96
74722;BME280;63470;49.826;6.740;2022-12-10T05:34:38;99393.80;;;1.70;68.98
74722;BME280;63470;49.826;6.740;2022-12-10T05:37:09;99392.42;;;1.71;68.96
74722;BME280;63470;49.826;6.740;2022-12-10T05:39:39;99392.19;;;1.69;68.99
74722;BME280;63470;49.826;6.740;2022-12-10T05:42:10;99390.05;;;1.70;68.93
74722;BME280;63470;49.826;6.740;2022-12-10T05:44:40;99389.33;;;1.69;68.90
74722;BME280;63470;49.826;6.740;2022-12-10T05:47:11;99393.95;;;1.68;68.94
74722;BME280;63470;49.826;6.740;2022-12-10T05:49:41;99394.43;;;1.66;68.90
74722;BME280;63470;49.826;6.740;2022-12-10T05:52:12;99396.37;;;1.63;68.88
74722;BME280;63470;49.826;6.740;2022-12-10T05:54:42;99395.09;;;1.55;68.86
74722;BME280;63470;49.826;6.740;2022-12-10T05:57:13;99401.88;;;1.47;68.89
74722;BME280;63470;49.826;6.740;2022-12-10T05:59:43;99402.14;;;1.39;69.00
74722;BME280;63470;49.826;6.740;2022-12-10T06:02:14;99405.83;;;1.33;69.08
74722;BME280;63470;49.826;6.740;2022-12-10T06:04:45;99410.50;;;1.28;69.15
74722;BME280;63470;49.826;6.740;2022-12-10T06:07:15;99409.51;;;1.27;69.18
74722;BME280;63470;49.826;6.740;2022-12-10T06:09:46;99413.10;;;1.27;69.17
74722;BME280;63470;49.826;6.740;2022-12-10T06:12:16;99417.41;;;1.27;69.17
74722;BME280;63470;49.826;6.740;2022-12-10T06:14:47;99415.30;;;1.28;69.13
74722;BME280;63470;49.826;6.740;2022-12-10T06:17:17;99416.75;;;1.27;69.04
74722;BME280;63470;49.826;6.740;2022-12-10T06:19:48;99418.73;;;1.23;69.04
74722;BME280;63470;49.826;6.740;2022-12-10T06:22:19;99420.83;;;1.20;69.03
74722;BME280;63470;49.826;6.740;2022-12-10T06:24:49;99418.84;;;1.13;69.05
74722;BME280;63470;49.826;6.740;2022-12-10T06:27:20;99419.56;;;1.05;69.17
74722;BME280;63470;49.826;6.740;2022-12-10T06:29:50;99428.55;;;1.01;69.25
74722;BME280;63470;49.826;6.740;2022-12-10T06:32:21;99433.17;;;0.99;69.28
74722;BME280;63470;49.826;6.740;2022-12-10T06:34:51;99433.09;;;1.00;69.26
74722;BME280;63470;49.826;6.740;2022-12-10T06:37:22;99437.48;;;1.03;69.24
74722;BME280;63470;49.826;6.740;2022-12-10T06:39:53;99439.14;;;1.07;69.19
74722;BME280;63470;49.826;6.740;2022-12-10T06:42:24;99441.64;;;1.11;69.15
74722;BME280;63470;49.826;6.740;2022-12-10T06:44:54;99452.45;;;1.13;69.17
74722;BME280;63470;49.826;6.740;2022-12-10T06:47:25;99455.33;;;1.17;69.19
74722;BME280;63470;49.826;6.740;2022-12-10T06:49:55;99454.88;;;1.21;69.19
74722;BME280;63470;49.826;6.740;2022-12-10T06:52:26;99457.61;;;1.27;69.18
74722;BME280;63470;49.826;6.740;2022-12-10T06:54:57;99465.80;;;1.33;69.11
74722;BME280;63470;49.826;6.740;2022-12-10T06:57:27;99468.28;;;1.37;69.07
74722;BME280;63470;49.826;6.740;2022-12-10T06:59:56;99473.41;;;1.39;69.09
74722;BME280;63470;49.826;6.740;2022-12-10T07:02:27;99468.38;;;1.40;69.09
74722;BME280;63470;49.826;6.740;2022-12-10T07:04:57;99472.86;;;1.41;69.16
74722;BME280;63470;49.826;6.740;2022-12-10T07:07:28;99473.69;;;1.43;69.18
74722;BME280;63470;49.826;6.740;2022-12-10T07:09:59;99473.36;;;1.44;69.11
74722;BME280;63470;49.826;6.740;2022-12-10T07:12:29;99474.77;;;1.45;69.09
74722;BME280;63470;49.826;6.740;2022-12-10T07:15:00;99473.55;;;1.46;69.08
74722;BME280;63470;49.826;6.740;2022-12-10T07:17:31;99475.18;;;1.47;69.05
74722;BME280;63470;49.826;6.740;2022-12-10T07:20:03;99475.68;;;1.47;69.04
74722;BME280;63470;49.826;6.740;2022-12-10T07:22:31;99478.02;;;1.48;69.10
74722;BME280;63470;49.826;6.740;2022-12-10T07:25:04;99484.00;;;1.51;69.09
74722;BME280;63470;49.826;6.740;2022-12-10T07:27:32;99479.97;;;1.55;69.02
74722;BME280;63470;49.826;6.740;2022-12-10T07:30:03;99483.08;;;1.57;68.99
74722;BME280;63470;49.826;6.740;2022-12-10T07:32:33;99484.38;;;1.59;69.01
74722;BME280;63470;49.826;6.740;2022-12-10T07:35:04;99487.34;;;1.63;68.97
74722;BME280;63470;49.826;6.740;2022-12-10T07:37:34;99494.02;;;1.65;68.93
74722;BME280;63470;49.826;6.740;2022-12-10T07:40:05;99494.54;;;1.67;68.86
74722;BME280;63470;49.826;6.740;2022-12-10T07:42:35;99492.92;;;1.69;68.87
74722;BME280;63470;49.826;6.740;2022-12-10T07:45:06;99499.69;;;1.73;68.89
74722;BME280;63470;49.826;6.740;2022-12-10T07:47:37;99499.81;;;1.77;68.90
74722;BME280;63470;49.826;6.740;2022-12-10T07:50:07;99502.84;;;1.81;68.90
74722;BME280;63470;49.826;6.740;2022-12-10T07:52:36;99502.47;;;1.83;68.88
74722;BME280;63470;49.826;6.740;2022-12-10T07:55:07;99504.03;;;1.86;68.84
74722;BME280;63470;49.826;6.740;2022-12-10T07:57:38;99508.11;;;1.88;68.82
74722;BME280;63470;49.826;6.740;2022-12-10T08:00:09;99500.30;;;1.89;68.82
74722;BME280;63470;49.826;6.740;2022-12-10T08:02:39;99510.74;;;1.92;68.90
74722;BME280;63470;49.826;6.740;2022-12-10T08:05:10;99518.02;;;1.96;68.95
74722;BME280;63470;49.826;6.740;2022-12-10T08:07:44;99521.44;;;2.00;68.90
74722;BME280;63470;49.826;6.740;2022-12-10T08:10:11;99528.00;;;2.04;68.88
74722;BME280;63470;49.826;6.740;2022-12-10T08:12:42;99527.19;;;2.07;68.87
74722;BME280;63470;49.826;6.740;2022-12-10T08:15:12;99530.05;;;2.11;68.86
74722;BME280;63470;49.826;6.740;2022-12-10T08:17:43;99533.59;;;2.15;68.82
74722;BME280;63470;49.826;6.740;2022-12-10T08:20:14;99534.81;;;2.18;68.80
74722;BME280;63470;49.826;6.740;2022-12-10T08:22:44;99528.84;;;2.22;68.79
74722;BME280;63470;49.826;6.740;2022-12-10T08:25:15;99536.09;;;2.24;68.79
74722;BME280;63470;49.826;6.740;2022-12-10T08:27:45;99533.25;;;2.24;68.72
74722;BME280;63470;49.826;6.740;2022-12-10T08:30:16;99535.74;;;2.21;68.76
74722;BME280;63470;49.826;6.740;2022-12-10T08:32:46;99537.23;;;2.24;68.79
74722;BME280;63470;49.826;6.740;2022-12-10T08:35:17;99538.03;;;2.25;68.79
74722;BME280;63470;49.826;6.740;2022-12-10T08:37:47;99540.34;;;2.28;68.85
74722;BME280;63470;49.826;6.740;2022-12-10T08:40:18;99544.10;;;2.31;68.82
74722;BME280;63470;49.826;6.740;2022-12-10T08:42:49;99547.70;;;2.33;68.76
74722;BME280;63470;49.826;6.740;2022-12-10T08:45:19;99549.81;;;2.32;68.67
74722;BME280;63470;49.826;6.740;2022-12-10T08:47:50;99543.61;;;2.30;68.76
74722;BME280;63470;49.826;6.740;2022-12-10T08:50:20;99545.96;;;2.30;68.85
74722;BME280;63470;49.826;6.740;2022-12-10T08:52:51;99549.00;;;2.32;68.88
74722;BME280;63470;49.826;6.740;2022-12-10T08:55:21;99549.23;;;2.31;68.91
74722;BME280;63470;49.826;6.740;2022-12-10T08:57:52;99548.42;;;2.31;69.01
74722;BME280;63470;49.826;6.740;2022-12-10T09:00:23;99555.45;;;2.35;69.04
74722;BME280;63470;49.826;6.740;2022-12-10T09:02:53;99556.94;;;2.39;69.02
74722;BME280;63470;49.826;6.740;2022-12-10T09:05:23;99565.02;;;2.45;69.03
74722;BME280;63470;49.826;6.740;2022-12-10T09:07:54;99563.94;;;2.52;69.02
74722;BME280;63470;49.826;6.740;2022-12-10T09:10:24;99565.93;;;2.61;68.95
74722;BME280;63470;49.826;6.740;2022-12-10T09:12:55;99568.58;;;2.68;68.87
74722;BME280;63470;49.826;6.740;2022-12-10T09:15:25;99570.31;;;2.72;68.87
74722;BME280;63470;49.826;6.740;2022-12-10T09:17:56;99571.31;;;2.76;68.90
74722;BME280;63470;49.826;6.740;2022-12-10T09:20:26;99577.69;;;2.81;68.93
74722;BME280;63470;49.826;6.740;2022-12-10T09:22:57;99579.34;;;2.88;68.98
74722;BME280;63470;49.826;6.740;2022-12-10T09:25:28;99583.68;;;2.97;69.02
74722;BME280;63470;49.826;6.740;2022-12-10T09:27:59;99584.20;;;3.04;68.89
74722;BME280;63470;49.826;6.740;2022-12-10T09:30:29;99587.86;;;3.02;68.76
74722;BME280;63470;49.826;6.740;2022-12-10T09:32:59;99587.38;;;2.99;68.87
74722;BME280;63470;49.826;6.740;2022-12-10T09:35:30;99593.80;;;2.99;68.92
74722;BME280;63470;49.826;6.740;2022-12-10T09:38:01;99594.71;;;3.02;69.01
74722;BME280;63470;49.826;6.740;2022-12-10T09:40:41;99591.20;;;3.05;68.97
74722;BME280;63470;49.826;6.740;2022-12-10T09:43:14;99594.98;;;3.10;68.95
74722;BME280;63470;49.826;6.740;2022-12-10T09:45:44;99592.53;;;3.11;68.80
74722;BME280;63470;49.826;6.740;2022-12-10T09:48:26;99591.42;;;3.13;68.88
74722;BME280;63470;49.826;6.740;2022-12-10T09:53:07;99587.73;;;3.11;68.84
74722;BME280;63470;49.826;6.740;2022-12-10T09:55:40;99584.48;;;3.12;68.87
74722;BME280;63470;49.826;6.740;2022-12-10T09:58:05;99589.03;;;3.11;68.86
74722;BME280;63470;49.826;6.740;2022-12-10T10:00:36;99592.70;;;3.11;68.91
74722;BME280;63470;49.826;6.740;2022-12-10T10:03:05;99594.19;;;3.12;69.01
74722;BME280;63470;49.826;6.740;2022-12-10T10:05:36;99592.95;;;3.11;68.96
74722;BME280;63470;49.826;6.740;2022-12-10T10:08:14;99594.27;;;3.14;69.02
74722;BME280;63470;49.826;6.740;2022-12-10T10:10:37;99588.48;;;3.13;69.03
74722;BME280;63470;49.826;6.740;2022-12-10T10:13:34;99588.82;;;3.15;69.13
74722;BME280;63470;49.826;6.740;2022-12-10T10:15:40;99588.42;;;3.20;69.00
74722;BME280;63470;49.826;6.740;2022-12-10T10:20:39;99583.67;;;3.37;69.01
74722;BME280;63470;49.826;6.740;2022-12-10T10:23:12;99582.62;;;3.49;68.92
74722;BME280;63470;49.826;6.740;2022-12-10T10:25:40;99588.84;;;3.57;68.78
74722;BME280;63470;49.826;6.740;2022-12-10T10:28:11;99582.24;;;3.62;68.73
74722;BME280;63470;49.826;6.740;2022-12-10T10:30:42;99584.70;;;3.71;68.67
74722;BME280;63470;49.826;6.740;2022-12-10T10:33:14;99586.08;;;3.78;68.56
74722;BME280;63470;49.826;6.740;2022-12-10T10:35:44;99585.38;;;3.87;68.57
74722;BME280;63470;49.826;6.740;2022-12-10T10:38:19;99582.37;;;3.98;68.51
74722;BME280;63470;49.826;6.740;2022-12-10T10:40:43;99578.85;;;4.06;68.37
74722;BME280;63470;49.826;6.740;2022-12-10T10:43:19;99575.99;;;4.12;68.37
74722;BME280;63470;49.826;6.740;2022-12-10T10:45:52;99574.76;;;4.20;68.40
74722;BME280;63470;49.826;6.740;2022-12-10T10:48:20;99576.60;;;4.33;68.34
74722;BME280;63470;49.826;6.740;2022-12-10T10:50:48;99568.14;;;4.64;68.33
74722;BME280;63470;49.826;6.740;2022-12-10T10:53:23;99572.47;;;4.83;68.08
74722;BME280;63470;49.826;6.740;2022-12-10T10:55:46;99573.08;;;4.98;68.07
74722;BME280;63470;49.826;6.740;2022-12-10T10:58:18;99576.80;;;5.24;67.86
74722;BME280;63470;49.826;6.740;2022-12-10T11:00:55;99575.59;;;5.34;67.59
74722;BME280;63470;49.826;6.740;2022-12-10T11:03:16;99579.59;;;5.35;67.67
74722;BME280;63470;49.826;6.740;2022-12-10T11:05:48;99569.70;;;5.36;67.80
74722;BME280;63470;49.826;6.740;2022-12-10T11:08:24;99571.31;;;5.40;67.78
74722;BME280;63470;49.826;6.740;2022-12-10T11:10:54;99568.84;;;5.57;67.74
74722;BME280;63470;49.826;6.740;2022-12-10T11:13:27;99566.33;;;5.77;67.74
74722;BME280;63470;49.826;6.740;2022-12-10T11:15:55;99564.89;;;5.97;67.49
74722;BME280;63470;49.826;6.740;2022-12-10T11:18:24;99560.77;;;5.92;67.37
74722;BME280;63470;49.826;6.740;2022-12-10T11:21:02;99567.66;;;5.88;67.56
74722;BME280;63470;49.826;6.740;2022-12-10T11:23:21;99567.86;;;5.85;67.62
74722;BME280;63470;49.826;6.740;2022-12-10T11:28:45;99568.62;;;5.38;68.66
74722;BME280;63470;49.826;6.740;2022-12-10T11:33:31;99568.73;;;5.35;68.65
74722;BME280;63470;49.826;6.740;2022-12-10T11:38:27;99574.19;;;4.86;69.03
74722;BME280;63470;49.826;6.740;2022-12-10T11:41:17;99574.17;;;4.66;69.22
74722;BME280;63470;49.826;6.740;2022-12-10T11:43:53;99581.23;;;4.44;69.41
74722;BME280;63470;49.826;6.740;2022-12-10T11:48:52;99580.38;;;4.29;69.14
74722;BME280;63470;49.826;6.740;2022-12-10T11:51:00;99583.41;;;4.23;69.07
74722;BME280;63470;49.826;6.740;2022-12-10T11:53:47;99578.63;;;4.36;69.11
74722;BME280;63470;49.826;6.740;2022-12-10T11:58:39;99575.22;;;4.69;68.43
74722;BME280;63470;49.826;6.740;2022-12-10T12:01:06;99578.34;;;4.90;68.17
74722;BME280;63470;49.826;6.740;2022-12-10T12:03:55;99579.91;;;5.08;68.23
74722;BME280;63470;49.826;6.740;2022-12-10T12:06:20;99573.41;;;5.71;69.53
74722;BME280;63470;49.826;6.740;2022-12-10T12:11:15;99574.27;;;8.08;69.17
74722;BME280;63470;49.826;6.740;2022-12-10T12:13:34;99567.04;;;8.90;68.21
74722;BME280;63470;49.826;6.740;2022-12-10T12:16:16;99567.92;;;9.57;67.40
74722;BME280;63470;49.826;6.740;2022-12-10T12:21:03;99572.17;;;8.31;65.97
74722;BME280;63470;49.826;6.740;2022-12-10T12:23:46;99577.47;;;7.55;67.68
74722;BME280;63470;49.826;6.740;2022-12-10T12:26:15;99573.84;;;6.72;68.52
74722;BME280;63470;49.826;6.740;2022-12-10T12:28:41;99575.05;;;5.98;69.79
74722;BME280;63470;49.826;6.740;2022-12-10T12:31:10;99573.66;;;5.41;70.87
74722;BME280;63470;49.826;6.740;2022-12-10T12:36:15;99578.96;;;4.80;71.82
74722;BME280;63470;49.826;6.740;2022-12-10T12:38:40;99580.72;;;4.68;71.72
74722;BME280;63470;49.826;6.740;2022-12-10T12:43:47;99582.27;;;4.92;72.30
74722;BME280;63470;49.826;6.740;2022-12-10T12:46:29;99576.50;;;5.21;71.99
74722;BME280;63470;49.826;6.740;2022-12-10T12:48:57;99572.41;;;5.34;71.42
74722;BME280;63470;49.826;6.740;2022-12-10T12:51:21;99576.00;;;5.63;71.19
74722;BME280;63470;49.826;6.740;2022-12-10T12:53:39;99572.59;;;5.83;70.86
74722;BME280;63470;49.826;6.740;2022-12-10T12:59:03;99574.39;;;5.73;70.25
74722;BME280;63470;49.826;6.740;2022-12-10T13:03:44;99571.01;;;6.90;69.99
74722;BME280;63470;49.826;6.740;2022-12-10T13:06:16;99573.61;;;7.55;68.87
74722;BME280;63470;49.826;6.740;2022-12-10T13:08:43;99574.98;;;8.25;67.66
74722;BME280;63470;49.826;6.740;2022-12-10T13:11:18;99571.59;;;8.80;66.19
74722;BME280;63470;49.826;6.740;2022-12-10T13:18:43;99584.05;;;8.47;64.26
74722;BME280;63470;49.826;6.740;2022-12-10T13:21:29;99589.65;;;7.41;65.88
74722;BME280;63470;49.826;6.740;2022-12-10T13:23:51;99592.05;;;6.48;67.12
74722;BME280;63470;49.826;6.740;2022-12-10T13:26:23;99598.50;;;5.77;68.02
74722;BME280;63470;49.826;6.740;2022-12-10T13:28:55;99599.64;;;5.23;68.47
74722;BME280;63470;49.826;6.740;2022-12-10T13:31:32;99602.64;;;4.86;68.90
74722;BME280;63470;49.826;6.740;2022-12-10T13:34:29;99606.88;;;4.58;69.00
74722;BME280;63470;49.826;6.740;2022-12-10T13:36:27;99606.98;;;4.31;69.22
74722;BME280;63470;49.826;6.740;2022-12-10T13:44:35;99618.17;;;3.91;69.47
74722;BME280;63470;49.826;6.740;2022-12-10T13:46:23;99619.95;;;3.82;69.47
74722;BME280;63470;49.826;6.740;2022-12-10T13:48:52;99620.94;;;3.73;69.46
74722;BME280;63470;49.826;6.740;2022-12-10T13:51:40;99622.55;;;3.66;69.48
74722;BME280;63470;49.826;6.740;2022-12-10T13:56:29;99631.06;;;3.52;69.46
74722;BME280;63470;49.826;6.740;2022-12-10T14:04:01;99633.30;;;3.33;69.54
74722;BME280;63470;49.826;6.740;2022-12-10T14:06:26;99637.70;;;3.27;69.38
74722;BME280;63470;49.826;6.740;2022-12-10T14:09:00;99636.34;;;3.20;69.31
74722;BME280;63470;49.826;6.740;2022-12-10T14:11:39;99643.98;;;3.12;69.33
74722;BME280;63470;49.826;6.740;2022-12-10T14:13:58;99642.39;;;3.06;69.35
74722;BME280;63470;49.826;6.740;2022-12-10T14:16:28;99640.48;;;2.98;69.35
74722;BME280;63470;49.826;6.740;2022-12-10T14:19:06;99649.15;;;2.89;69.40
74722;BME280;63470;49.826;6.740;2022-12-10T14:21:32;99644.47;;;2.80;69.40
74722;BME280;63470;49.826;6.740;2022-12-10T14:24:02;99654.61;;;2.70;69.50